Fox Point, Wisconsin
Current Conditions -  °F | °C
As of 1:45 PM on Wednesday 17 Dec 2014 (Local Time) from KMWC Reporting Station
Overcast Overcast  
Wind Chill: 15°   Ceiling: 2600
Heat Index: 27°   Visibility: 10mi
Dew Point: 16°   Wind: 14mph
Humidity: 64%   Direction: 290°WNW
Pressure: 30.18"   Gusts: 18mph
Location:  43.1576°N, 87.9144°W
Report Text: KMWC 171945Z AUTO 29012G16KT 10SM OVC026 M03/M09 A3018
Loading
Personal Weather Stations






























Interactive Weather Map New forecast layout! Learn more

10-Day Weather Forecast

Advertisements
Track Severe Weather on mobile